Time;durP1;ratioP1;P1;durP2;ratioP2;P2;SDS_P1;SDS_P2;PMS_P1;PMS_P2;Temp;Humidity;BMP_temperature;BMP_pressure;BME280_temperature;BME280_humidity;BME280_pressure;Samples;Min_cycle;Max_cycle;Signal;HPM_P1;HPM_P2
2022/02/08 00:02:09;;;;;;;5.53;1.67;;;11.30;71.60;;;;;;5039043;28;19905;-76
2022/02/08 00:04:35;;;;;;;4.03;1.35;;;11.30;71.60;;;;;;5054687;28;20021;-75
2022/02/08 00:07:03;;;;;;;4.75;1.40;;;11.30;71.50;;;;;;5053699;28;20071;-76
2022/02/08 00:09:30;;;;;;;5.93;1.50;;;11.30;71.60;;;;;;5021369;28;20120;-76
2022/02/08 00:11:55;;;;;;;5.15;1.63;;;11.30;71.60;;;;;;5027320;28;20029;-76
2022/02/08 00:14:21;;;;;;;5.68;1.70;;;11.30;71.70;;;;;;5036436;28;20056;-76
2022/02/08 00:16:46;;;;;;;5.55;1.60;;;11.30;71.70;;;;;;5046100;28;20026;-75
2022/02/08 00:19:12;;;;;;;8.45;2.08;;;11.30;71.70;;;;;;5016362;28;20035;-75
2022/02/08 00:21:37;;;;;;;7.82;2.20;;;11.30;71.70;;;;;;5023147;28;20028;-76
2022/02/08 00:24:03;;;;;;;5.50;1.60;;;11.30;71.60;;;;;;5025555;28;20029;-76
2022/02/08 00:26:29;;;;;;;5.80;1.70;;;11.30;71.60;;;;;;5017658;28;20116;-76
2022/02/08 00:28:54;;;;;;;5.13;1.63;;;11.30;71.70;;;;;;5035810;28;20025;-75
2022/02/08 00:31:20;;;;;;;4.22;1.40;;;11.30;71.60;;;;;;5053830;28;20032;-76
2022/02/08 00:33:45;;;;;;;6.10;1.70;;;11.30;71.70;;;;;;5053414;28;20059;-76
2022/02/08 00:36:11;;;;;;;5.68;1.50;;;11.20;71.70;;;;;;5042614;28;20029;-76
2022/02/08 00:38:37;;;;;;;5.72;1.42;;;11.30;71.60;;;;;;5015921;28;20549;-75
2022/02/08 00:41:03;;;;;;;6.45;1.80;;;11.20;71.70;;;;;;5040268;28;20726;-76
2022/02/08 00:43:55;;;;;;;5.72;1.58;;;11.20;71.60;;;;;;5053846;28;20024;-76
2022/02/08 00:46:31;;;;;;;6.07;1.77;;;11.30;71.80;;;;;;5016241;28;20108;-76
2022/02/08 00:49:02;;;;;;;5.18;1.70;;;11.20;71.70;;;;;;5032674;28;20034;-76
2022/02/08 00:51:38;;;;;;;6.30;1.92;;;11.30;71.80;;;;;;5033599;28;20390;-75
2022/02/08 00:54:03;;;;;;;7.05;1.90;;;11.30;71.80;;;;;;5034552;28;20033;-76
2022/02/08 00:56:29;;;;;;;6.72;1.67;;;11.30;71.80;;;;;;5035666;28;20371;-76
2022/02/08 00:58:54;;;;;;;5.97;1.80;;;11.20;71.80;;;;;;5023800;28;20026;-76
2022/02/08 01:01:20;;;;;;;5.32;1.65;;;11.20;71.90;;;;;;5015686;28;20388;-76
2022/02/08 01:03:45;;;;;;;5.53;1.60;;;11.20;71.90;;;;;;5033761;28;20018;-76
2022/02/08 01:06:11;;;;;;;7.90;1.95;;;11.20;71.80;;;;;;5015732;28;20026;-76
2022/02/08 01:08:39;;;;;;;8.23;1.88;;;11.20;71.90;;;;;;5015657;28;20018;-77
2022/02/08 01:11:08;;;;;;;6.22;1.80;;;11.20;71.80;;;;;;5015359;28;20507;-77
2022/02/08 01:13:36;;;;;;;5.97;1.80;;;11.20;71.90;;;;;;5015564;28;20028;-76
2022/02/08 01:16:02;;;;;;;7.05;2.08;;;11.20;71.90;;;;;;5033312;28;20021;-75
2022/02/08 01:18:30;;;;;;;7.22;2.17;;;11.20;71.90;;;;;;5015215;28;20032;-76
2022/02/08 01:20:55;;;;;;;4.97;1.70;;;11.20;72.00;;;;;;5016662;28;20136;-76
2022/02/08 01:23:21;;;;;;;6.95;2.00;;;11.20;72.00;;;;;;5015464;28;20499;-76
2022/02/08 01:25:51;;;;;;;8.15;1.90;;;11.20;72.10;;;;;;5015376;28;20483;-75
2022/02/08 01:36:19;;;;;;;5.93;2.00;;;11.20;72.10;;;;;;5032876;28;20021;-75
2022/02/08 01:38:42;;;;;;;6.53;2.17;;;11.20;72.10;;;;;;5032690;28;20048;-76
2022/02/08 01:51:48;;;;;;;6.30;2.00;;;11.20;72.20;;;;;;5033006;28;20049;-76
2022/02/08 01:54:14;;;;;;;10.57;2.58;;;11.20;72.30;;;;;;5044512;28;20064;-76
2022/02/08 01:56:40;;;;;;;7.30;2.35;;;11.20;72.20;;;;;;5033670;28;20059;-76
2022/02/08 01:59:05;;;;;;;7.22;1.90;;;11.20;72.40;;;;;;5032403;28;20022;-76
2022/02/08 02:01:31;;;;;;;9.00;2.70;;;11.20;72.40;;;;;;5014682;28;20075;-76
2022/02/08 02:03:56;;;;;;;7.57;2.35;;;11.20;72.40;;;;;;5032533;28;20036;-76
2022/02/08 02:06:23;;;;;;;9.05;2.25;;;11.20;72.40;;;;;;5020059;28;20116;-75
2022/02/08 02:08:48;;;;;;;5.20;2.42;;;11.20;72.50;;;;;;5034418;28;20029;-76
2022/02/08 02:11:14;;;;;;;7.28;2.30;;;11.20;72.60;;;;;;5029821;28;20022;-75
2022/02/08 02:13:45;;;;;;;8.55;2.35;;;11.20;72.60;;;;;;5014746;28;20071;-76
2022/02/08 02:16:14;;;;;;;;;;;11.20;72.70;;;;;;5033458;28;20024;-76
2022/02/08 02:18:39;;;;;;;8.20;2.38;;;11.20;72.70;;;;;;5034289;28;19916;-76
2022/02/08 02:21:05;;;;;;;10.30;2.60;;;11.20;72.80;;;;;;5049049;28;20029;-76
2022/02/08 02:23:31;;;;;;;7.15;2.60;;;11.20;72.70;;;;;;5032300;28;20025;-74
2022/02/08 02:25:58;;;;;;;7.07;2.63;;;11.20;72.80;;;;;;5016420;28;20030;-76
2022/02/08 02:28:25;;;;;;;9.63;3.13;;;11.20;72.90;;;;;;5027443;28;20110;-76
2022/02/08 02:30:50;;;;;;;7.70;2.85;;;11.20;72.90;;;;;;5018468;28;20441;-76
2022/02/08 02:33:16;;;;;;;7.68;2.80;;;11.20;73.00;;;;;;5018805;28;20029;-76
2022/02/08 02:35:43;;;;;;;6.78;2.60;;;11.20;73.00;;;;;;5018687;28;20117;-76
2022/02/08 02:38:09;;;;;;;7.47;2.85;;;11.20;73.10;;;;;;5036181;28;20112;-76
2022/02/08 02:40:36;;;;;;;9.20;3.33;;;11.20;73.10;;;;;;5035777;28;20112;-76
2022/02/08 02:43:02;;;;;;;7.07;2.75;;;11.20;73.10;;;;;;5046379;28;20040;-75
2022/02/08 02:45:28;;;;;;;8.23;2.88;;;11.20;73.20;;;;;;5038160;28;20035;-76
2022/02/08 02:47:55;;;;;;;9.02;3.35;;;11.20;73.30;;;;;;5055819;28;20572;-76
2022/02/08 02:50:22;;;;;;;9.90;3.47;;;11.20;73.30;;;;;;5055642;28;20033;-77
2022/02/08 02:52:47;;;;;;;8.82;3.30;;;11.20;73.30;;;;;;5038024;28;20025;-76
2022/02/08 02:55:15;;;;;;;8.13;3.50;;;11.20;73.20;;;;;;5035832;28;20559;-76
2022/02/08 02:57:42;;;;;;;8.93;3.50;;;11.20;73.40;;;;;;5035944;28;20032;-77
2022/02/08 03:00:12;;;;;;;9.80;4.25;;;11.20;73.40;;;;;;5017633;28;20064;-76
2022/02/08 03:02:50;;;;;;;7.63;3.30;;;11.20;73.50;;;;;;5018063;28;20025;-76
2022/02/08 03:05:28;;;;;;;8.35;3.30;;;11.20;73.50;;;;;;5018034;28;20032;-75
2022/02/08 03:18:49;;;;;;;10.75;3.92;;;11.20;73.70;;;;;;5044642;28;20044;-76
2022/02/08 03:21:16;;;;;;;9.02;4.30;;;11.20;73.80;;;;;;5055119;28;20025;-75
2022/02/08 03:23:41;;;;;;;8.75;4.05;;;11.20;73.80;;;;;;5037448;28;20063;-76
2022/02/08 03:26:07;;;;;;;9.60;4.03;;;11.20;73.80;;;;;;5026692;28;20045;-76
2022/02/08 03:28:33;;;;;;;9.18;4.13;;;11.10;73.80;;;;;;5018348;28;20021;-74
2022/02/08 03:30:59;;;;;;;10.35;4.50;;;11.10;73.90;;;;;;5054976;28;20024;-76
2022/02/08 03:33:26;;;;;;;8.20;4.20;;;11.10;73.90;;;;;;5031691;28;20021;-77
2022/02/08 03:35:54;;;;;;;11.00;4.60;;;11.20;74.00;;;;;;5049711;28;20477;-76
2022/02/08 03:38:28;;;;;;;8.60;4.20;;;11.10;74.00;;;;;;5039211;28;20031;-74
2022/02/08 03:40:55;;;;;;;10.27;5.18;;;11.10;73.90;;;;;;5015838;28;20033;-76
2022/02/08 03:45:51;;;;;;;11.43;5.05;;;11.10;74.00;;;;;;5049783;28;20363;-76
2022/02/08 03:48:19;;;;;;;10.07;4.82;;;11.10;74.00;;;;;;5024198;28;20019;-75
2022/02/08 03:50:50;;;;;;;8.50;4.78;;;11.10;74.10;;;;;;5054700;28;20041;-76
2022/02/08 03:53:16;;;;;;;9.70;4.53;;;11.10;74.20;;;;;;5054895;28;20024;-75
2022/02/08 03:55:41;;;;;;;13.30;5.90;;;11.10;74.10;;;;;;5054736;28;20033;-75
2022/02/08 03:58:07;;;;;;;12.10;4.82;;;11.10;74.20;;;;;;5030394;28;20644;-76
2022/02/08 04:00:42;;;;;;;10.73;4.82;;;11.10;74.20;;;;;;5036880;28;20059;-76
2022/02/08 04:03:07;;;;;;;10.15;4.85;;;11.10;74.30;;;;;;5034696;28;20028;-76
2022/02/08 04:05:38;;;;;;;8.18;4.53;;;11.10;74.30;;;;;;5016967;28;20022;-76
2022/02/08 04:08:08;;;;;;;10.77;4.75;;;11.10;74.40;;;;;;5054028;28;20115;-75
2022/02/08 04:10:33;;;;;;;9.05;5.32;;;11.10;74.40;;;;;;5054116;28;20517;-76
2022/02/08 04:15:52;;;;;;;9.20;4.63;;;11.10;74.40;;;;;;5034536;28;20029;-75
2022/02/08 04:42:31;;;;;;;8.15;4.13;;;11.10;74.90;;;;;;5040500;28;20459;-76
2022/02/08 04:47:58;;;;;;;8.13;4.85;;;11.10;74.90;;;;;;5034152;28;20053;-76
2022/02/08 04:50:26;;;;;;;8.35;4.28;;;11.10;75.00;;;;;;5015792;28;20025;-75
2022/02/08 04:52:56;;;;;;;7.70;4.03;;;11.10;75.10;;;;;;5020526;28;20056;-76
2022/02/08 05:28:56;;;;;;;9.98;5.03;;;11.10;75.60;;;;;;5033397;28;20075;-76
2022/02/08 05:49:04;;;;;;;9.05;5.80;;;11.10;76.00;;;;;;5065906;28;20020;-75
2022/02/08 05:54:14;;;;;;;8.68;5.78;;;11.10;76.00;;;;;;5029138;28;20159;-77
2022/02/08 05:56:39;;;;;;;8.68;5.60;;;11.10;76.10;;;;;;5029096;28;20061;-74
2022/02/08 05:59:07;;;;;;;8.80;6.18;;;11.10;76.10;;;;;;5027788;28;20078;-74
2022/02/08 06:01:33;;;;;;;8.90;6.30;;;11.10;76.20;;;;;;5047310;28;20033;-78
2022/02/08 06:04:00;;;;;;;8.77;6.32;;;11.10;76.10;;;;;;5027474;28;20072;-76
2022/02/08 06:06:27;;;;;;;10.27;6.30;;;11.00;76.00;;;;;;5041932;28;20119;-75
2022/02/08 06:08:52;;;;;;;11.73;6.93;;;11.10;76.20;;;;;;5028642;28;20071;-76
2022/02/08 06:11:18;;;;;;;10.57;6.95;;;11.00;76.20;;;;;;5043809;28;20029;-75
2022/02/08 06:13:43;;;;;;;9.45;6.10;;;11.00;76.20;;;;;;5020019;28;20142;-76
2022/02/08 06:16:17;;;;;;;10.00;6.72;;;11.00;76.30;;;;;;5015778;28;20016;-75
2022/02/08 06:18:42;;;;;;;10.98;7.03;;;11.10;76.30;;;;;;5029553;28;20025;-74
2022/02/08 06:21:08;;;;;;;10.73;7.43;;;11.10;76.40;;;;;;5026985;28;20364;-78
2022/02/08 06:23:34;;;;;;;11.02;7.55;;;11.10;76.50;;;;;;5012459;28;20499;-76
2022/02/08 06:25:59;;;;;;;12.40;8.35;;;11.00;76.60;;;;;;5021493;28;20017;-76
2022/02/08 06:28:25;;;;;;;11.82;8.07;;;11.00;77.20;;;;;;5026732;28;20018;-74
2022/02/08 06:30:51;;;;;;;12.15;8.02;;;11.00;77.30;;;;;;5015347;28;20793;-77
2022/02/08 06:33:20;;;;;;;12.07;7.40;;;11.00;77.20;;;;;;5035446;28;20040;-74
2022/02/08 06:35:46;;;;;;;11.38;7.40;;;11.00;76.90;;;;;;5027364;28;20450;-75
2022/02/08 06:38:14;;;;;;;10.98;7.43;;;11.10;77.00;;;;;;5017472;28;20045;-76
2022/02/08 06:40:42;;;;;;;10.95;8.15;;;11.00;76.80;;;;;;5031524;28;20013;-76
2022/02/08 06:43:08;;;;;;;10.90;7.68;;;11.10;76.90;;;;;;5016634;28;20048;-73
2022/02/08 06:45:34;;;;;;;12.48;8.35;;;11.00;76.90;;;;;;5046272;28;20021;-76
2022/02/08 06:48:00;;;;;;;10.80;8.00;;;11.00;77.00;;;;;;5048373;28;20351;-73
2022/02/08 06:50:26;;;;;;;13.20;8.35;;;11.00;76.90;;;;;;5047969;28;20128;-75
2022/02/08 06:52:52;;;;;;;11.57;8.15;;;10.90;76.90;;;;;;5021682;28;20026;-74
2022/02/08 06:55:18;;;;;;;9.75;7.53;;;11.00;76.90;;;;;;5046452;28;20420;-74
2022/02/08 06:57:52;;;;;;;12.43;8.00;;;11.00;77.00;;;;;;5029817;28;20051;-74
2022/02/08 07:00:22;;;;;;;12.30;8.55;;;11.00;77.00;;;;;;5029492;28;20505;-75
2022/02/08 07:02:51;;;;;;;12.07;8.52;;;11.00;76.60;;;;;;5047335;28;20051;-73
2022/02/08 07:05:17;;;;;;;33.58;9.68;;;11.10;76.60;;;;;;5047214;28;20586;-74
2022/02/08 07:07:43;;;;;;;28.38;10.10;;;11.10;76.80;;;;;;5046857;28;20029;-74
2022/02/08 07:10:10;;;;;;;17.98;9.80;;;11.10;77.20;;;;;;5014625;28;20079;-74
2022/02/08 07:12:35;;;;;;;20.83;9.02;;;11.10;77.30;;;;;;5029731;28;20064;-76
2022/02/08 07:15:09;;;;;;;17.33;9.38;;;11.00;77.30;;;;;;5046859;28;20060;-73
2022/02/08 07:17:35;;;;;;;13.23;9.10;;;11.00;77.50;;;;;;5039267;28;20029;-73
2022/02/08 07:20:01;;;;;;;13.15;9.00;;;11.00;77.50;;;;;;5030814;28;20035;-75
2022/02/08 07:22:26;;;;;;;14.68;8.43;;;11.00;77.40;;;;;;5049176;28;20067;-77
2022/02/08 07:24:52;;;;;;;14.80;9.55;;;11.00;77.50;;;;;;5042130;28;20604;-75
2022/02/08 07:27:17;;;;;;;12.43;9.05;;;11.00;77.60;;;;;;5012624;28;20072;-76
2022/02/08 07:29:50;;;;;;;14.00;8.93;;;11.00;77.60;;;;;;5011176;28;20745;-76
2022/02/08 07:32:16;;;;;;;11.50;9.00;;;11.00;77.60;;;;;;5011644;28;20029;-77
2022/02/08 07:34:50;;;;;;;12.75;8.63;;;11.00;77.70;;;;;;5011480;28;20384;-76
2022/02/08 07:37:32;;;;;;;13.98;9.00;;;11.00;77.80;;;;;;5011031;28;20068;-75
2022/02/08 07:40:02;;;;;;;11.68;8.98;;;11.00;77.80;;;;;;5028623;28;20034;-76
2022/02/08 07:42:28;;;;;;;12.23;9.15;;;11.00;77.80;;;;;;5029014;28;20025;-76
2022/02/08 07:44:53;;;;;;;12.18;9.43;;;11.00;77.80;;;;;;5011224;28;20041;-78
2022/02/08 07:47:19;;;;;;;13.77;9.30;;;11.00;77.90;;;;;;5028819;28;20490;-77
2022/02/08 07:49:44;;;;;;;13.52;9.35;;;11.00;77.90;;;;;;5010851;28;20037;-76
2022/02/08 07:52:10;;;;;;;14.50;9.32;;;11.00;78.00;;;;;;5011296;28;20033;-76
2022/02/08 07:54:36;;;;;;;12.43;9.40;;;11.00;78.00;;;;;;5011488;28;20471;-76
2022/02/08 07:57:02;;;;;;;13.70;9.52;;;11.00;78.50;;;;;;5028782;28;20044;-78
2022/02/08 07:59:27;;;;;;;12.88;9.80;;;11.00;78.10;;;;;;5028248;28;20189;-75
2022/02/08 08:01:53;;;;;;;13.50;9.65;;;11.00;78.10;;;;;;5028784;28;20041;-78
2022/02/08 08:04:18;;;;;;;12.90;9.35;;;11.00;78.10;;;;;;5011090;28;20026;-76
2022/02/08 08:06:44;;;;;;;12.43;9.35;;;11.00;78.20;;;;;;5010915;28;20529;-78
2022/02/08 08:09:09;;;;;;;14.30;9.30;;;11.00;78.20;;;;;;5010454;28;20033;-76
2022/02/08 08:11:40;;;;;;;12.43;8.93;;;11.00;78.30;;;;;;5010507;28;20029;-79
2022/02/08 08:14:07;;;;;;;14.20;9.65;;;11.00;78.30;;;;;;5010674;28;20065;-76
2022/02/08 08:19:20;;;;;;;13.57;9.48;;;11.00;78.40;;;;;;5027930;28;20037;-78
2022/02/08 08:21:47;;;;;;;12.20;9.05;;;11.00;78.40;;;;;;5010651;28;20053;-78
2022/02/08 08:24:13;;;;;;;12.45;8.98;;;11.00;78.50;;;;;;5010483;28;20112;-75
2022/02/08 08:26:39;;;;;;;12.60;9.25;;;11.00;78.50;;;;;;5009738;28;20593;-75
2022/02/08 08:29:05;;;;;;;12.98;9.43;;;11.00;78.50;;;;;;5027863;28;20408;-75
2022/02/08 08:31:30;;;;;;;14.43;9.13;;;11.00;78.50;;;;;;5010000;28;20129;-77
2022/02/08 08:33:56;;;;;;;12.75;9.23;;;11.00;78.60;;;;;;5010413;28;20036;-75
2022/02/08 08:36:22;;;;;;;13.27;9.30;;;11.00;78.60;;;;;;5010451;28;20068;-76
2022/02/08 08:38:51;;;;;;;12.77;9.07;;;11.00;78.70;;;;;;5010072;28;20116;-75
2022/02/08 08:51:48;;;;;;;12.60;8.77;;;11.00;78.80;;;;;;5028106;28;20021;-76
2022/02/08 08:54:14;;;;;;;13.40;9.10;;;11.00;78.90;;;;;;5028052;28;20469;-76
2022/02/08 08:56:43;;;;;;;12.35;8.23;;;11.00;78.90;;;;;;5009819;28;20022;-76
2022/02/08 08:59:11;;;;;;;12.52;8.15;;;11.00;78.90;;;;;;5009322;28;20323;-75
2022/02/08 09:01:37;;;;;;;12.38;8.50;;;11.00;78.90;;;;;;5027175;28;20498;-79
2022/02/08 09:04:04;;;;;;;11.80;8.70;;;11.00;79.00;;;;;;5009815;28;20033;-75
2022/02/08 09:06:32;;;;;;;11.10;7.90;;;11.00;79.00;;;;;;5027401;28;20029;-76
2022/02/08 09:08:58;;;;;;;12.40;8.15;;;11.00;79.00;;;;;;5027674;28;20548;-80
2022/02/08 09:14:14;;;;;;;11.52;8.18;;;11.00;79.10;;;;;;5027150;28;20105;-75
2022/02/08 09:16:51;;;;;;;11.35;8.25;;;11.00;79.10;;;;;;5027299;28;20487;-77
2022/02/08 09:22:08;;;;;;;10.15;7.80;;;11.00;79.10;;;;;;5027168;28;20380;-76
2022/02/08 09:29:42;;;;;;;12.80;8.02;;;11.00;79.10;;;;;;5026904;28;20409;-76
2022/02/08 09:32:20;;;;;;;11.88;8.27;;;11.00;79.10;;;;;;5009197;28;20041;-75
2022/02/08 09:34:47;;;;;;;11.25;7.50;;;11.00;79.20;;;;;;5009398;28;20029;-76
2022/02/08 09:37:14;;;;;;;12.05;8.48;;;11.00;79.30;;;;;;5009168;28;20033;-76
2022/02/08 09:39:41;;;;;;;10.73;7.78;;;11.00;79.30;;;;;;5008616;28;20133;-76
2022/02/08 09:42:08;;;;;;;11.05;7.88;;;11.00;79.30;;;;;;5009325;28;20398;-75
2022/02/08 09:44:35;;;;;;;12.63;8.35;;;11.00;79.30;;;;;;5008814;28;20080;-73
2022/02/08 09:47:06;;;;;;;11.70;7.68;;;11.00;79.30;;;;;;5008938;28;20430;-75
2022/02/08 09:49:32;;;;;;;11.57;8.45;;;11.00;79.40;;;;;;5008343;28;20037;-80
2022/02/08 09:52:00;;;;;;;13.20;8.38;;;11.00;79.30;;;;;;5008912;28;20487;-76
2022/02/08 09:54:26;;;;;;;11.90;7.50;;;11.00;79.40;;;;;;5008741;28;20079;-74
2022/02/08 09:56:52;;;;;;;11.93;7.63;;;11.00;79.40;;;;;;5008983;28;20025;-76
2022/02/08 09:59:17;;;;;;;12.63;7.97;;;11.00;79.50;;;;;;5026263;28;20479;-74
2022/02/08 10:01:58;;;;;;;11.73;7.75;;;11.00;79.50;;;;;;5008543;28;20584;-75
2022/02/08 10:04:25;;;;;;;11.07;8.00;;;11.00;79.50;;;;;;5026216;28;20104;-77
2022/02/08 10:06:54;;;;;;;11.77;7.60;;;11.00;79.60;;;;;;5026530;28;20026;-75
2022/02/08 10:09:30;;;;;;;10.68;7.82;;;11.00;79.60;;;;;;5025684;28;20033;-79
2022/02/08 10:11:57;;;;;;;11.10;7.72;;;11.00;79.60;;;;;;5008569;28;20075;-76
2022/02/08 10:22:36;;;;;;;12.65;7.40;;;11.00;79.70;;;;;;5026566;28;20091;-76
2022/02/08 10:25:05;;;;;;;11.77;7.88;;;11.00;79.60;;;;;;5008709;28;20018;-78
2022/02/08 10:38:11;;;;;;;12.50;7.50;;;11.00;79.80;;;;;;4981851;28;20048;-77
2022/02/08 10:40:41;;;;;;;12.00;7.65;;;11.00;79.80;;;;;;5007911;28;20491;-74
2022/02/08 10:43:09;;;;;;;12.23;7.90;;;11.00;79.90;;;;;;5026253;28;20049;-76
2022/02/08 10:45:37;;;;;;;12.40;8.00;;;11.00;79.90;;;;;;5026106;28;20044;-76
2022/02/08 10:48:11;;;;;;;11.25;7.85;;;11.00;80.00;;;;;;5008336;28;20099;-78
2022/02/08 10:50:46;;;;;;;13.25;8.40;;;11.00;80.00;;;;;;5027461;28;20477;-79
2022/02/08 10:53:13;;;;;;;12.35;8.18;;;11.00;80.00;;;;;;5012046;28;20458;-77
2022/02/08 10:55:48;;;;;;;11.30;7.22;;;11.00;80.10;;;;;;5029673;28;20040;-75
2022/02/08 10:59:09;;;;;;;11.40;7.25;;;11.00;80.00;;;;;;5029934;28;20044;-77
2022/02/08 11:03:44;;;;;;;12.68;7.93;;;11.00;80.10;;;;;;5029851;28;20053;-77
2022/02/08 11:06:19;;;;;;;11.70;7.70;;;11.00;80.10;;;;;;5029976;28;20031;-78
2022/02/08 11:09:03;;;;;;;11.25;7.68;;;11.00;80.20;;;;;;5012050;28;20040;-75
2022/02/08 11:16:49;;;;;;;11.48;7.60;;;11.00;80.20;;;;;;5029666;28;20056;-78
2022/02/08 11:19:39;;;;;;;12.00;7.75;;;11.00;80.30;;;;;;5029405;28;20038;-78
2022/02/08 11:22:30;;;;;;;10.90;7.40;;;11.00;80.30;;;;;;5030028;28;20393;-75
2022/02/08 11:25:11;;;;;;;11.25;7.07;;;11.00;80.30;;;;;;5029350;28;20322;-75
2022/02/08 11:27:40;;;;;;;12.88;7.90;;;11.00;80.30;;;;;;5011753;28;20021;-78
2022/02/08 11:30:17;;;;;;;11.13;7.18;;;11.00;80.30;;;;;;5011024;28;20282;-75
2022/02/08 11:32:57;;;;;;;11.50;7.40;;;11.00;80.30;;;;;;5011653;28;20079;-76
2022/02/08 11:46:50;;;;;;;11.35;7.03;;;11.00;80.50;;;;;;5029032;28;20266;-79
2022/02/08 11:51:46;;;;;;;11.75;6.93;;;11.00;80.50;;;;;;5028749;28;20056;-75
2022/02/08 12:02:37;;;;;;;10.98;7.20;;;11.00;80.60;;;;;;5027846;28;20557;-77
2022/02/08 12:05:44;;;;;;;10.25;6.60;;;11.00;80.60;;;;;;5028275;28;20163;-76
2022/02/08 12:07:56;;;;;;;9.85;6.40;;;11.10;80.70;;;;;;5014578;28;20839;-78
2022/02/08 12:13:15;;;;;;;12.13;7.47;;;11.00;80.70;;;;;;5028447;28;20025;-76
2022/02/08 12:28:16;;;;;;;11.90;7.00;;;11.00;80.80;;;;;;5032557;28;20552;-79
2022/02/08 12:32:39;;;;;;;12.02;7.10;;;11.00;80.90;;;;;;5030035;28;20493;-75
2022/02/08 12:52:37;;;;;;;12.65;8.45;;;11.00;80.80;;;;;;5049399;28;20116;-73
2022/02/08 13:00:09;;;;;;;14.32;8.50;;;11.00;81.10;;;;;;5048483;28;20116;-73
2022/02/08 13:02:56;;;;;;;13.70;8.80;;;11.00;81.20;;;;;;5035114;28;20032;-74
2022/02/08 14:10:56;;;;;;;13.38;7.20;;;11.00;81.90;;;;;;5047958;28;20033;-73
2022/02/08 14:13:49;;;;;;;12.85;6.82;;;11.10;81.80;;;;;;5047549;28;20102;-73
2022/02/08 14:36:56;;;;;;;17.45;6.50;;;11.00;83.20;;;;;;5045121;28;20083;-76
2022/02/08 15:07:31;;;;;;;11.90;5.72;;;11.00;83.30;;;;;;5027453;28;20032;-75
2022/02/08 15:09:37;;;;;;;9.63;5.32;;;11.00;83.40;;;;;;5026384;28;20558;-77
2022/02/08 15:12:16;;;;;;;14.05;6.20;;;11.00;83.40;;;;;;5027146;28;20558;-75
2022/02/08 15:14:51;;;;;;;11.23;6.40;;;11.00;83.50;;;;;;5009715;28;20040;-74
2022/02/08 15:17:18;;;;;;;9.95;5.63;;;11.00;83.50;;;;;;5017089;28;20409;-75
2022/02/08 15:19:46;;;;;;;9.30;5.40;;;11.00;84.30;;;;;;5025925;28;20028;-76
2022/02/08 15:22:12;;;;;;;11.32;5.78;;;11.00;84.20;;;;;;5027577;28;20036;-74
2022/02/08 15:24:39;;;;;;;10.75;5.57;;;11.00;84.10;;;;;;5046959;28;20025;-74
2022/02/08 15:27:07;;;;;;;9.13;5.13;;;11.00;84.20;;;;;;5029738;28;20100;-75
2022/02/08 15:29:33;;;;;;;10.07;5.65;;;11.00;83.90;;;;;;5029644;28;20687;-80
2022/02/08 15:32:01;;;;;;;10.88;5.38;;;11.00;84.20;;;;;;5029891;28;20159;-76
2022/02/08 15:34:26;;;;;;;9.45;5.43;;;11.00;84.90;;;;;;5029878;28;20043;-75
2022/02/08 15:36:52;;;;;;;8.48;5.28;;;11.00;84.90;;;;;;5035886;28;20033;-77
2022/02/08 15:39:18;;;;;;;9.35;5.28;;;11.00;84.70;;;;;;5013225;28;20029;-78
2022/02/08 15:41:45;;;;;;;9.45;5.50;;;11.00;84.40;;;;;;5013579;28;20108;-75
2022/02/08 15:44:16;;;;;;;9.40;5.38;;;11.00;84.40;;;;;;5014097;28;20457;-76
2022/02/08 15:46:41;;;;;;;9.47;5.87;;;11.00;84.40;;;;;;5038061;28;20025;-75
2022/02/08 15:49:07;;;;;;;8.65;5.35;;;11.00;84.50;;;;;;5049881;28;20375;-77
2022/02/08 15:54:33;;;;;;;8.68;5.10;;;11.00;84.20;;;;;;5051104;28;20024;-77
2022/02/08 16:08:03;;;;;;;9.65;5.00;;;11.00;84.80;;;;;;5019140;28;20075;-74
2022/02/08 16:10:39;;;;;;;9.95;4.80;;;11.00;84.40;;;;;;5032111;28;20596;-76
2022/02/08 16:13:37;;;;;;;10.98;4.90;;;11.00;84.20;;;;;;5013386;28;20029;-73
2022/02/08 16:16:20;;;;;;;26.40;5.90;;;11.00;84.20;;;;;;5011844;28;20029;-75
2022/02/08 16:19:27;;;;;;;26.30;5.25;;;11.00;84.10;;;;;;5029039;28;20517;-76
2022/02/08 16:32:35;;;;;;;21.40;6.47;;;11.00;84.20;;;;;;5046622;28;20372;-74
2022/02/08 16:53:40;;;;;;;12.50;4.55;;;11.00;84.90;;;;;;5046596;28;20545;-72
2022/02/08 16:56:15;;;;;;;13.82;5.03;;;11.00;84.80;;;;;;5031228;28;20398;-75
2022/02/08 16:58:51;;;;;;;10.50;4.68;;;11.00;85.00;;;;;;5031380;28;20021;-75
2022/02/08 17:01:20;;;;;;;9.75;4.32;;;11.00;84.60;;;;;;5032627;28;20082;-73
2022/02/08 17:03:48;;;;;;;14.15;5.18;;;11.00;84.70;;;;;;5051016;28;20548;-76
2022/02/08 17:06:21;;;;;;;12.10;4.90;;;11.00;84.80;;;;;;5051658;28;20063;-76
2022/02/08 17:08:49;;;;;;;;;;;11.00;84.80;;;;;;5051640;28;20029;-76
2022/02/08 17:11:22;;;;;;;12.13;4.63;;;11.00;84.80;;;;;;5051063;28;19966;-75
2022/02/08 17:14:11;;;;;;;12.80;5.00;;;11.00;85.00;;;;;;5069046;28;20017;-74
2022/02/08 17:16:43;;;;;;;9.13;4.65;;;11.00;85.00;;;;;;5068615;28;20035;-80
2022/02/08 17:46:06;;;;;;;12.77;4.50;;;11.20;84.20;;;;;;5048570;28;20059;-74
2022/02/08 17:48:35;;;;;;;12.65;4.95;;;11.20;84.00;;;;;;5048132;28;20828;-74
2022/02/08 17:51:02;;;;;;;11.50;4.78;;;11.30;85.00;;;;;;5022926;28;20061;-78
2022/02/08 17:53:27;;;;;;;10.50;4.30;;;11.30;84.40;;;;;;5030702;28;20025;-74
2022/02/08 17:55:53;;;;;;;10.73;4.22;;;11.40;84.40;;;;;;5029834;28;20177;-73
2022/02/08 17:58:20;;;;;;;13.43;4.75;;;11.40;84.50;;;;;;5020576;28;20471;-74
2022/02/08 18:00:46;;;;;;;12.02;4.43;;;11.40;84.70;;;;;;5025290;28;20079;-75
2022/02/08 18:03:12;;;;;;;13.27;4.38;;;11.40;84.70;;;;;;5048257;28;20025;-74
2022/02/08 18:05:38;;;;;;;11.65;4.82;;;11.50;84.90;;;;;;5047909;28;20013;-75
2022/02/08 18:08:06;;;;;;;10.27;4.53;;;11.50;84.90;;;;;;5047369;28;20383;-74
2022/02/08 18:10:32;;;;;;;9.20;4.43;;;11.50;85.00;;;;;;5032784;28;20105;-74
2022/02/08 18:13:01;;;;;;;10.98;4.00;;;11.60;85.30;;;;;;5037551;28;20446;-74
2022/02/08 18:15:27;;;;;;;10.27;4.22;;;11.60;85.60;;;;;;5044151;28;20025;-73
2022/02/08 18:17:57;;;;;;;9.55;4.28;;;11.70;85.70;;;;;;5034338;28;20021;-74
2022/02/08 18:20:31;;;;;;;11.10;4.65;;;11.70;86.10;;;;;;5028332;28;20516;-75
2022/02/08 18:28:22;;;;;;;11.00;4.18;;;11.80;87.20;;;;;;5047655;28;20049;-75
2022/02/08 19:15:14;;;;;;;11.00;4.07;;;12.60;90.90;;;;;;5049119;28;20021;-74
2022/02/08 19:20:07;;;;;;;9.65;3.92;;;12.70;90.80;;;;;;5036508;28;20065;-74
2022/02/08 19:22:33;;;;;;;6.78;3.70;;;12.70;90.60;;;;;;5021395;28;20017;-74
2022/02/08 19:24:58;;;;;;;10.35;3.70;;;12.70;90.30;;;;;;5031670;28;20032;-74
2022/02/08 19:27:24;;;;;;;10.82;4.05;;;12.70;90.60;;;;;;5051690;28;20032;-74
2022/02/08 19:29:50;;;;;;;9.98;3.83;;;12.60;90.40;;;;;;5050877;28;20029;-73
2022/02/08 19:32:15;;;;;;;11.35;3.88;;;12.60;90.40;;;;;;5033778;28;20068;-74
2022/02/08 19:34:45;;;;;;;9.63;3.80;;;12.50;90.40;;;;;;5032737;28;20037;-77
2022/02/08 19:37:12;;;;;;;10.73;4.25;;;12.50;90.50;;;;;;5032690;28;20032;-76
2022/02/08 19:39:40;;;;;;;12.88;3.83;;;12.50;90.20;;;;;;5033092;28;20498;-79
2022/02/08 19:42:08;;;;;;;12.85;4.22;;;12.40;90.00;;;;;;5032696;28;20794;-74
2022/02/08 19:44:33;;;;;;;8.23;3.95;;;12.40;90.00;;;;;;5031660;28;20036;-78
2022/02/08 19:46:59;;;;;;;8.85;4.00;;;12.40;89.90;;;;;;5013951;28;20025;-75
2022/02/08 19:49:26;;;;;;;8.70;3.70;;;12.40;89.70;;;;;;5030984;28;20068;-74
2022/02/08 19:51:53;;;;;;;8.85;3.95;;;12.40;89.40;;;;;;5012756;28;20025;-75
2022/02/08 19:54:23;;;;;;;8.25;3.83;;;12.30;89.40;;;;;;5043051;28;20025;-74
2022/02/08 19:59:31;;;;;;;10.43;4.05;;;12.30;89.00;;;;;;5050767;28;20259;-74
2022/02/08 20:01:57;;;;;;;7.82;3.78;;;12.30;88.70;;;;;;5033016;28;20532;-74
2022/02/08 20:04:24;;;;;;;9.02;3.85;;;12.30;88.90;;;;;;5033483;28;20029;-75
2022/02/08 20:06:52;;;;;;;16.02;4.20;;;12.30;88.20;;;;;;5033160;28;20023;-76
2022/02/08 20:09:18;;;;;;;8.30;3.90;;;12.30;88.40;;;;;;5033470;28;20021;-76
2022/02/08 20:11:44;;;;;;;9.65;4.07;;;12.20;88.30;;;;;;5034101;28;20024;-75
2022/02/08 20:14:12;;;;;;;10.63;4.22;;;12.20;88.10;;;;;;5034865;28;20036;-75
2022/02/08 20:16:38;;;;;;;10.25;4.10;;;12.20;88.00;;;;;;5034284;28;20028;-78
2022/02/08 20:19:06;;;;;;;8.25;3.90;;;12.20;87.90;;;;;;5034784;28;20039;-76
2022/02/08 20:21:33;;;;;;;9.40;3.92;;;12.20;87.80;;;;;;5057556;28;20033;-76
2022/02/08 20:24:02;;;;;;;8.68;3.88;;;12.20;87.70;;;;;;5031989;28;20104;-75
2022/02/08 20:26:44;;;;;;;9.30;3.80;;;12.20;87.50;;;;;;5031299;28;20474;-76
2022/02/08 20:29:17;;;;;;;8.63;4.00;;;12.20;87.30;;;;;;5030943;28;20025;-78
2022/02/08 20:31:47;;;;;;;9.98;4.10;;;12.10;87.10;;;;;;5013106;28;20033;-76
2022/02/08 20:34:17;;;;;;;9.75;4.18;;;12.20;87.20;;;;;;5030976;28;20029;-76
2022/02/08 20:36:43;;;;;;;9.10;3.80;;;12.10;86.90;;;;;;5013018;28;20021;-75